createdAt,value
2022-12-08T00:01:21.295Z,4.50
2022-12-08T00:03:48.399Z,3.58
2022-12-08T00:06:54.523Z,2.67
2022-12-08T00:09:41.816Z,3.65
2022-12-08T00:12:17.844Z,3.20
2022-12-08T00:14:46.872Z,3.97
2022-12-08T00:17:15.614Z,4.75
2022-12-08T00:19:43.133Z,6.20
2022-12-08T00:22:11.217Z,4.43
2022-12-08T00:24:39.905Z,3.42
2022-12-08T00:27:08.003Z,2.60
2022-12-08T00:29:34.474Z,5.47
2022-12-08T00:32:01.052Z,3.65
2022-12-08T00:34:27.688Z,4.78
2022-12-08T00:36:54.382Z,5.53
2022-12-08T00:39:20.887Z,1.77
2022-12-08T00:42:05.798Z,4.35
2022-12-08T00:44:32.347Z,4.47
2022-12-08T00:46:58.946Z,2.83
2022-12-08T00:49:25.513Z,7.15
2022-12-08T00:51:52.427Z,2.88
2022-12-08T00:54:18.918Z,6.38
2022-12-08T00:56:46.178Z,3.38
2022-12-08T00:59:12.621Z,3.17
2022-12-08T01:01:39.195Z,3.15
2022-12-08T01:04:07.439Z,1.25
2022-12-08T01:06:36.983Z,1.90
2022-12-08T01:09:05.730Z,0.90
2022-12-08T01:11:32.943Z,4.43
2022-12-08T01:13:59.537Z,2.70
2022-12-08T01:16:28.829Z,3.63
2022-12-08T01:18:57.278Z,2.97
2022-12-08T01:21:24.098Z,1.60
2022-12-08T01:23:50.605Z,2.83
2022-12-08T01:26:18.183Z,1.90
2022-12-08T01:28:45.700Z,1.55
2022-12-08T01:31:14.908Z,3.13
2022-12-08T01:33:42.019Z,0.75
2022-12-08T01:36:17.993Z,1.85
2022-12-08T01:38:44.411Z,4.07
2022-12-08T01:41:15.702Z,1.88
2022-12-08T01:44:23.558Z,2.25
2022-12-08T01:46:52.491Z,2.05
2022-12-08T01:49:26.248Z,0.82
2022-12-08T01:52:14.144Z,2.88
2022-12-08T01:54:50.036Z,1.48
2022-12-08T01:57:49.307Z,2.15
2022-12-08T02:00:18.438Z,3.80
2022-12-08T02:03:04.798Z,2.75
2022-12-08T02:05:34.960Z,2.25
2022-12-08T02:08:06.987Z,1.33
2022-12-08T02:10:36.561Z,1.33
2022-12-08T02:13:04.488Z,0.93
2022-12-08T02:15:45.396Z,0.57
2022-12-08T02:18:41.417Z,0.73
2022-12-08T02:21:16.060Z,4.70
2022-12-08T02:23:59.305Z,1.10
2022-12-08T02:26:47.656Z,1.77
2022-12-08T02:29:39.722Z,0.70
2022-12-08T02:32:45.000Z,4.85
2022-12-08T02:35:32.399Z,1.40
2022-12-08T02:38:07.812Z,2.88
2022-12-08T02:41:02.307Z,2.67
2022-12-08T02:43:42.539Z,3.10
2022-12-08T02:46:34.293Z,1.25
2022-12-08T02:49:02.115Z,2.08
2022-12-08T02:51:28.595Z,1.88
2022-12-08T02:53:55.535Z,1.45
2022-12-08T02:56:40.739Z,1.73
2022-12-08T02:59:15.376Z,0.65
2022-12-08T03:02:06.256Z,2.45
2022-12-08T03:04:46.632Z,3.20
2022-12-08T03:07:17.362Z,2.30
2022-12-08T03:09:54.373Z,0.50
2022-12-08T03:12:28.807Z,2.42
2022-12-08T03:14:59.801Z,1.20
2022-12-08T03:17:29.682Z,2.15
2022-12-08T03:19:58.179Z,0.73
2022-12-08T03:22:27.522Z,3.60
2022-12-08T03:24:56.428Z,1.10
2022-12-08T03:27:28.630Z,1.17
2022-12-08T03:29:57.673Z,1.38
2022-12-08T03:32:36.186Z,4.13
2022-12-08T03:35:08.291Z,4.57
2022-12-08T03:37:37.804Z,2.55
2022-12-08T03:40:08.323Z,1.65
2022-12-08T03:42:34.819Z,0.82
2022-12-08T03:45:01.300Z,3.80
2022-12-08T03:47:27.783Z,0.52
2022-12-08T03:49:54.296Z,1.75
2022-12-08T03:52:20.748Z,0.60
2022-12-08T03:54:47.232Z,0.60
2022-12-08T03:57:13.826Z,3.75
2022-12-08T03:59:40.282Z,7.68
2022-12-08T04:02:06.797Z,0.88
2022-12-08T04:04:33.528Z,2.85
2022-12-08T04:06:59.980Z,4.40
2022-12-08T04:09:26.420Z,3.33
2022-12-08T04:11:52.919Z,0.98
2022-12-08T04:14:19.552Z,0.73
2022-12-08T04:16:46.010Z,0.93
2022-12-08T04:19:12.473Z,1.05
2022-12-08T04:21:38.976Z,0.93
2022-12-08T04:24:05.658Z,0.32
2022-12-08T04:26:32.112Z,2.08
2022-12-08T04:28:58.577Z,1.33
2022-12-08T04:31:25.060Z,0.90
2022-12-08T04:33:51.592Z,2.13
2022-12-08T04:36:18.234Z,1.90
2022-12-08T04:38:44.688Z,0.85
2022-12-08T04:41:11.302Z,1.55
2022-12-08T04:43:37.815Z,0.50
2022-12-08T04:46:10.580Z,0.82
2022-12-08T04:48:38.281Z,0.75
2022-12-08T04:51:05.112Z,3.08
2022-12-08T04:53:31.740Z,2.33
2022-12-08T04:55:58.273Z,1.30
2022-12-08T04:58:24.939Z,0.57
2022-12-08T05:00:51.533Z,5.80
2022-12-08T05:03:18.091Z,2.70
2022-12-08T05:05:44.651Z,2.40
2022-12-08T05:08:11.326Z,2.63
2022-12-08T05:10:38.788Z,4.57
2022-12-08T05:13:05.430Z,1.70
2022-12-08T05:15:31.895Z,2.72
2022-12-08T05:17:58.380Z,1.30
2022-12-08T05:20:25.895Z,5.05
2022-12-08T05:22:52.380Z,4.80
2022-12-08T05:25:18.831Z,0.50
2022-12-08T05:27:45.434Z,3.30
2022-12-08T05:30:12.121Z,1.50
2022-12-08T05:32:38.603Z,0.45
2022-12-08T05:35:05.350Z,2.50
2022-12-08T05:37:31.846Z,0.63
2022-12-08T05:39:58.343Z,2.53
2022-12-08T05:42:25.290Z,0.75
2022-12-08T05:44:52.112Z,2.55
2022-12-08T05:47:18.681Z,1.75
2022-12-08T05:49:45.153Z,2.08
2022-12-08T05:52:11.654Z,2.03
2022-12-08T05:54:39.463Z,0.32
2022-12-08T05:57:06.008Z,0.20
2022-12-08T05:59:32.626Z,0.93
2022-12-08T06:01:59.241Z,1.02
2022-12-08T06:04:25.819Z,0.10
2022-12-08T06:06:52.427Z,1.08
2022-12-08T06:09:18.861Z,1.17
2022-12-08T06:11:47.102Z,2.03
2022-12-08T06:14:13.691Z,0.45
2022-12-08T06:16:40.236Z,0.85
2022-12-08T06:19:07.025Z,3.10
2022-12-08T06:21:33.512Z,0.10
2022-12-08T06:23:59.992Z,0.30
2022-12-08T06:26:26.716Z,0.50
2022-12-08T06:28:53.221Z,0.38
2022-12-08T06:31:24.743Z,1.20
2022-12-08T06:33:52.155Z,0.60
2022-12-08T06:36:21.536Z,0.40
2022-12-08T06:38:48.625Z,0.88
2022-12-08T06:41:15.893Z,2.70
2022-12-08T06:43:42.735Z,2.42
2022-12-08T06:46:13.371Z,3.40
2022-12-08T06:48:39.986Z,2.88
2022-12-08T06:51:08.794Z,1.85
2022-12-08T06:53:35.300Z,3.42
2022-12-08T06:56:01.864Z,3.22
2022-12-08T06:58:28.403Z,1.50
2022-12-08T07:00:55.153Z,2.05
2022-12-08T07:03:21.752Z,2.22
2022-12-08T07:05:48.217Z,4.80
2022-12-08T07:08:15.076Z,1.15
2022-12-08T07:10:41.936Z,2.58
2022-12-08T07:13:08.424Z,3.80
2022-12-08T07:15:34.901Z,1.60
2022-12-08T07:18:01.378Z,2.15
2022-12-08T07:20:28.045Z,2.35
2022-12-08T07:22:54.662Z,2.35
2022-12-08T07:25:22.051Z,2.78
2022-12-08T07:27:50.422Z,1.65
2022-12-08T07:30:17.132Z,3.80
2022-12-08T07:32:43.636Z,3.15
2022-12-08T07:35:10.462Z,3.05
2022-12-08T07:37:37.971Z,1.75
2022-12-08T07:40:06.732Z,1.73
2022-12-08T07:42:33.728Z,3.33
2022-12-08T07:45:00.830Z,2.75
2022-12-08T07:47:27.417Z,2.88
2022-12-08T07:49:53.895Z,1.85
2022-12-08T07:52:20.559Z,1.83
2022-12-08T07:54:47.350Z,0.98
2022-12-08T07:57:13.957Z,0.90
2022-12-08T07:59:40.460Z,1.48
2022-12-08T08:02:24.300Z,1.40
2022-12-08T08:04:52.121Z,0.93
2022-12-08T08:07:18.738Z,0.88
2022-12-08T08:09:45.830Z,1.55
2022-12-08T08:12:31.867Z,0.75
2022-12-08T08:15:00.443Z,0.77
2022-12-08T08:17:27.579Z,1.40
2022-12-08T08:19:54.235Z,1.83
2022-12-08T08:22:20.719Z,2.72
2022-12-08T08:24:47.131Z,1.55
2022-12-08T08:27:14.037Z,2.47
2022-12-08T08:29:40.569Z,1.10
2022-12-08T08:32:07.079Z,1.40
2022-12-08T08:34:36.640Z,3.80
2022-12-08T08:37:04.437Z,1.77
2022-12-08T08:39:32.045Z,0.85
2022-12-08T08:41:58.750Z,2.05
2022-12-08T08:44:25.361Z,2.90
2022-12-08T08:46:52.300Z,1.70
2022-12-08T08:49:18.914Z,2.78
2022-12-08T08:51:46.199Z,2.15
2022-12-08T08:54:12.719Z,1.83
2022-12-08T08:56:39.200Z,1.65
2022-12-08T08:59:05.660Z,3.00
2022-12-08T09:01:32.447Z,1.30
2022-12-08T09:03:59.057Z,4.20
2022-12-08T09:06:28.132Z,1.02
2022-12-08T09:08:54.723Z,3.50
2022-12-08T09:11:23.282Z,1.00
2022-12-08T09:16:17.516Z,2.00
2022-12-08T09:18:44.221Z,2.60
2022-12-08T09:21:16.577Z,1.15
2022-12-08T09:23:44.213Z,1.13
2022-12-08T09:26:10.682Z,0.85
2022-12-08T09:28:37.591Z,1.42
2022-12-08T09:31:04.433Z,1.42
2022-12-08T09:33:31.181Z,3.88
2022-12-08T09:36:04.759Z,1.77
2022-12-08T09:38:31.895Z,3.97
2022-12-08T09:40:59.834Z,2.05
2022-12-08T09:43:47.796Z,3.10
2022-12-08T09:46:24.764Z,3.42
2022-12-08T09:48:57.028Z,2.08
2022-12-08T09:51:31.361Z,3.67
2022-12-08T09:54:15.736Z,1.15
2022-12-08T09:56:42.279Z,1.95
2022-12-08T09:59:08.868Z,1.58
2022-12-08T10:01:41.580Z,2.75
2022-12-08T10:04:36.111Z,2.95
2022-12-08T10:07:31.964Z,1.15
2022-12-08T10:10:25.128Z,1.92
2022-12-08T10:13:14.507Z,1.60
2022-12-08T10:16:00.245Z,1.70
2022-12-08T10:18:32.359Z,1.25
2022-12-08T10:21:20.508Z,2.83
2022-12-08T10:23:53.395Z,1.73
2022-12-08T10:26:21.458Z,1.35
2022-12-08T10:28:48.409Z,0.55
2022-12-08T10:31:24.253Z,1.52
2022-12-08T10:34:01.375Z,2.10
2022-12-08T10:36:51.971Z,1.52
2022-12-08T10:39:57.083Z,1.13
2022-12-08T10:42:23.581Z,2.60
2022-12-08T10:45:19.504Z,2.80
2022-12-08T10:48:10.412Z,0.52
2022-12-08T10:50:43.959Z,0.65
2022-12-08T10:53:20.420Z,1.88
2022-12-08T10:55:50.171Z,0.13
2022-12-08T10:58:24.656Z,0.98
2022-12-08T11:00:55.960Z,1.08
2022-12-08T11:03:28.167Z,1.45
2022-12-08T11:06:05.425Z,0.30
2022-12-08T11:11:11.860Z,1.42
2022-12-08T11:13:42.145Z,0.95
2022-12-08T11:16:13.808Z,1.45
2022-12-08T11:18:47.028Z,1.48
2022-12-08T11:21:19.835Z,1.13
2022-12-08T11:23:49.347Z,1.55
2022-12-08T11:26:25.972Z,1.17
2022-12-08T11:28:52.430Z,0.68
2022-12-08T11:31:21.609Z,0.77
2022-12-08T11:33:51.171Z,0.93
2022-12-08T11:36:20.685Z,2.72
2022-12-08T11:38:50.512Z,0.73
2022-12-08T11:41:20.060Z,1.00
2022-12-08T11:44:16.566Z,0.75
2022-12-08T11:47:10.717Z,1.40
2022-12-08T11:49:39.951Z,1.13
2022-12-08T11:52:24.069Z,1.50
2022-12-08T11:54:50.411Z,1.08
2022-12-08T11:57:20.592Z,3.05
2022-12-08T11:59:57.284Z,2.53
2022-12-08T12:02:26.976Z,3.13
2022-12-08T12:05:06.326Z,2.65
2022-12-08T12:07:54.303Z,2.10
2022-12-08T12:10:51.173Z,1.30
2022-12-08T12:13:55.982Z,1.10
2022-12-08T12:16:40.779Z,2.53
2022-12-08T12:19:14.748Z,1.20
2022-12-08T12:21:48.755Z,0.60
2022-12-08T12:24:27.348Z,1.27
2022-12-08T12:27:02.562Z,0.73
2022-12-08T12:29:35.978Z,1.45
2022-12-08T12:32:06.060Z,1.52
2022-12-08T12:34:57.143Z,1.65
2022-12-08T12:37:28.055Z,1.27
2022-12-08T12:40:05.553Z,2.33
2022-12-08T12:42:39.866Z,2.40
2022-12-08T12:45:31.226Z,3.78
2022-12-08T12:48:00.336Z,4.88
2022-12-08T12:50:33.024Z,5.80
2022-12-08T12:53:01.214Z,2.83
2022-12-08T12:55:48.989Z,2.95
2022-12-08T12:58:27.421Z,5.78
2022-12-08T13:01:15.234Z,3.70
2022-12-08T13:04:03.663Z,3.50
2022-12-08T13:06:38.750Z,2.20
2022-12-08T13:09:07.289Z,3.05
2022-12-08T13:14:59.399Z,2.20
2022-12-08T13:17:32.828Z,2.85
2022-12-08T13:20:04.282Z,2.92
2022-12-08T13:22:50.207Z,3.85
2022-12-08T13:25:42.482Z,3.15
2022-12-08T13:28:22.057Z,2.60
2022-12-08T13:30:54.169Z,2.65
2022-12-08T13:33:26.716Z,3.42
2022-12-08T13:36:14.484Z,2.03
2022-12-08T13:38:46.060Z,3.00
2022-12-08T13:41:29.392Z,4.32
2022-12-08T13:45:03.474Z,3.85
2022-12-08T13:47:17.173Z,1.95
2022-12-08T13:51:10.508Z,3.30
2022-12-08T13:56:51.312Z,4.20
2022-12-08T13:58:31.889Z,3.60
2022-12-08T14:00:58.807Z,3.53
2022-12-08T14:03:25.486Z,4.60
2022-12-08T14:11:34.844Z,4.65
2022-12-08T14:16:38.967Z,3.83
2022-12-08T14:19:32.326Z,3.67
2022-12-08T14:22:07.976Z,3.67
2022-12-08T14:24:34.503Z,3.47
2022-12-08T14:27:04.348Z,5.60
2022-12-08T14:29:39.670Z,5.32
2022-12-08T14:32:20.033Z,2.70
2022-12-08T14:34:53.857Z,3.97
2022-12-08T14:37:21.750Z,2.95
2022-12-08T14:39:51.063Z,2.75
2022-12-08T14:42:25.980Z,2.58
2022-12-08T14:45:01.968Z,2.45
2022-12-08T14:47:33.587Z,2.00
2022-12-08T14:50:03.293Z,1.88
2022-12-08T14:52:30.449Z,3.08
2022-12-08T14:54:58.440Z,1.80
2022-12-08T14:57:35.350Z,1.20
2022-12-08T15:00:08.619Z,1.90
2022-12-08T15:02:42.155Z,2.65
2022-12-08T15:05:31.978Z,1.20
2022-12-08T15:08:03.987Z,3.28
2022-12-08T15:10:33.237Z,3.53
2022-12-08T15:13:05.082Z,8.20
2022-12-08T15:15:45.718Z,3.15
2022-12-08T15:18:37.356Z,3.03
2022-12-08T15:21:08.941Z,5.55
2022-12-08T15:23:45.894Z,6.38
2022-12-08T15:26:23.809Z,2.40
2022-12-08T15:28:50.722Z,3.28
2022-12-08T15:31:18.303Z,2.83
2022-12-08T15:33:45.021Z,2.08
2022-12-08T15:36:12.056Z,3.22
2022-12-08T15:38:39.114Z,3.88
2022-12-08T15:41:08.038Z,3.40
2022-12-08T15:43:37.990Z,3.58
2022-12-08T15:46:04.929Z,3.38
2022-12-08T15:48:31.419Z,3.03
2022-12-08T15:50:58.535Z,5.35
2022-12-08T15:53:25.263Z,3.05
2022-12-08T15:58:53.405Z,4.43
2022-12-08T16:01:21.012Z,4.47
2022-12-08T16:09:32.592Z,4.00
2022-12-08T16:12:17.709Z,2.97
2022-12-08T16:15:48.136Z,4.78
2022-12-08T16:17:31.667Z,3.13
2022-12-08T16:19:59.042Z,3.95
2022-12-08T16:25:20.616Z,3.58
2022-12-08T16:28:05.215Z,2.80
2022-12-08T16:30:32.712Z,5.25
2022-12-08T16:32:59.182Z,3.40
2022-12-08T16:35:25.676Z,3.50
2022-12-08T16:37:52.128Z,3.92
2022-12-08T16:40:18.689Z,5.35
2022-12-08T16:42:46.546Z,5.07
2022-12-08T16:45:18.822Z,5.57
2022-12-08T16:47:48.012Z,4.65
2022-12-08T16:50:17.838Z,6.43
2022-12-08T16:52:45.450Z,7.32
2022-12-08T16:55:15.696Z,10.40
2022-12-08T16:57:42.628Z,8.77
2022-12-08T17:00:16.380Z,8.57
2022-12-08T17:02:42.950Z,9.63
2022-12-08T17:05:13.744Z,8.32
2022-12-08T17:07:42.080Z,9.45
2022-12-08T17:10:10.663Z,8.07
2022-12-08T17:12:37.222Z,14.52
2022-12-08T17:15:08.626Z,11.30
2022-12-08T17:17:35.891Z,11.57
2022-12-08T17:20:05.500Z,10.48
2022-12-08T17:22:34.283Z,10.38
2022-12-08T17:27:27.862Z,7.38
2022-12-08T17:29:54.524Z,8.73
2022-12-08T17:32:21.227Z,11.57
2022-12-08T17:34:48.472Z,12.10
2022-12-08T17:37:15.171Z,11.45
2022-12-08T17:39:41.682Z,14.60
2022-12-08T17:42:08.640Z,11.27
2022-12-08T17:44:35.738Z,11.52
2022-12-08T17:47:03.052Z,12.38
2022-12-08T17:49:31.035Z,11.68
2022-12-08T17:51:59.430Z,10.80
2022-12-08T17:54:25.984Z,8.82
2022-12-08T17:56:52.499Z,9.63
2022-12-08T17:59:19.010Z,11.23
2022-12-08T18:01:45.709Z,9.52
2022-12-08T18:04:12.900Z,10.25
2022-12-08T18:06:39.775Z,9.40
2022-12-08T18:09:07.837Z,13.00
2022-12-08T18:11:35.933Z,9.70
2022-12-08T18:14:09.723Z,11.20
2022-12-08T18:16:41.683Z,9.30
2022-12-08T18:19:09.429Z,10.27
2022-12-08T18:21:36.290Z,8.73
2022-12-08T18:24:03.349Z,8.85
2022-12-08T18:26:30.726Z,8.90
2022-12-08T18:28:57.891Z,8.45
2022-12-08T18:31:25.100Z,11.02
2022-12-08T18:33:52.560Z,9.45
2022-12-08T18:36:22.009Z,8.55
2022-12-08T18:38:49.064Z,12.00
2022-12-08T18:41:23.401Z,11.05
2022-12-08T18:43:50.340Z,9.15
2022-12-08T18:46:16.932Z,12.27
2022-12-08T18:48:47.212Z,9.57
2022-12-08T18:51:23.004Z,9.65
2022-12-08T18:53:50.299Z,14.48
2022-12-08T18:56:28.020Z,14.70
2022-12-08T18:59:03.171Z,12.98
2022-12-08T19:01:35.208Z,13.98
2022-12-08T19:04:27.437Z,13.60
2022-12-08T19:06:56.663Z,15.25
2022-12-08T19:09:25.492Z,14.27
2022-12-08T19:11:52.685Z,13.70
2022-12-08T19:14:25.775Z,14.52
2022-12-08T19:16:54.415Z,14.05
2022-12-08T19:19:21.607Z,12.93
2022-12-08T19:21:48.539Z,15.05
2022-12-08T19:24:15.580Z,12.48
2022-12-08T19:26:42.917Z,12.80
2022-12-08T19:29:10.481Z,12.38
2022-12-08T19:31:37.421Z,10.55
2022-12-08T19:34:08.451Z,11.02
2022-12-08T19:36:38.190Z,12.45
2022-12-08T19:39:23.919Z,12.88
2022-12-08T19:42:09.146Z,11.77
2022-12-08T19:44:54.299Z,10.65
2022-12-08T19:47:26.148Z,11.57
2022-12-08T19:49:55.359Z,11.52
2022-12-08T19:52:22.277Z,11.43
2022-12-08T19:54:48.841Z,13.90
2022-12-08T19:57:15.965Z,17.77
2022-12-08T19:59:42.458Z,13.25
2022-12-08T20:02:10.522Z,14.27
2022-12-08T20:04:37.149Z,14.27
2022-12-08T20:07:04.240Z,12.20
2022-12-08T20:09:30.651Z,11.73
2022-12-08T20:11:57.162Z,14.05
2022-12-08T20:14:23.585Z,13.73
2022-12-08T20:16:53.274Z,13.07
2022-12-08T20:19:19.912Z,16.23
2022-12-08T20:21:46.616Z,16.05
2022-12-08T20:24:13.506Z,15.82
2022-12-08T20:26:40.087Z,16.35
2022-12-08T20:29:06.975Z,14.95
2022-12-08T20:31:33.827Z,24.38
2022-12-08T20:34:01.236Z,17.80
2022-12-08T20:36:28.288Z,20.00
2022-12-08T20:38:55.617Z,19.45
2022-12-08T20:41:23.397Z,19.38
2022-12-08T20:43:50.487Z,20.38
2022-12-08T20:46:18.092Z,20.80
2022-12-08T20:48:44.940Z,21.33
2022-12-08T20:51:16.718Z,15.32
2022-12-08T20:53:43.462Z,17.58
2022-12-08T20:56:17.450Z,16.77
2022-12-08T20:58:44.838Z,24.00
2022-12-08T21:01:13.029Z,15.45
2022-12-08T21:03:40.354Z,13.40
2022-12-08T21:06:07.958Z,18.15
2022-12-08T21:08:35.393Z,18.60
2022-12-08T21:11:02.628Z,17.02
2022-12-08T21:13:29.483Z,21.05
2022-12-08T21:15:56.785Z,20.73
2022-12-08T21:18:24.463Z,18.73
2022-12-08T21:20:52.286Z,22.67
2022-12-08T21:23:19.221Z,18.02
2022-12-08T21:25:47.244Z,18.17
2022-12-08T21:28:13.902Z,19.42
2022-12-08T21:30:41.429Z,16.17
2022-12-08T21:33:08.253Z,17.17
2022-12-08T21:35:34.893Z,17.40
2022-12-08T21:38:01.564Z,17.58
2022-12-08T21:40:28.269Z,17.55
2022-12-08T21:42:55.105Z,19.67
2022-12-08T21:45:22.062Z,17.75
2022-12-08T21:47:49.877Z,17.65
2022-12-08T21:50:17.659Z,18.17
2022-12-08T21:52:47.226Z,18.95
2022-12-08T21:55:15.798Z,19.70
2022-12-08T21:57:42.772Z,17.83
2022-12-08T22:00:13.371Z,19.30
2022-12-08T22:02:40.096Z,16.58
2022-12-08T22:05:07.140Z,15.93
2022-12-08T22:07:33.758Z,15.52
2022-12-08T22:10:00.327Z,16.90
2022-12-08T22:12:27.073Z,15.55
2022-12-08T22:14:53.518Z,17.25
2022-12-08T22:17:20.310Z,15.15
2022-12-08T22:19:47.128Z,14.13
2022-12-08T22:22:13.642Z,15.15
2022-12-08T22:24:40.146Z,12.88
2022-12-08T22:27:06.716Z,16.08
2022-12-08T22:29:33.158Z,13.10
2022-12-08T22:32:00.077Z,16.20
2022-12-08T22:34:26.725Z,15.43
2022-12-08T22:36:53.143Z,15.45
2022-12-08T22:39:20.693Z,17.08
2022-12-08T22:41:47.177Z,19.08
2022-12-08T22:44:16.029Z,19.25
2022-12-08T22:46:42.868Z,18.92
2022-12-08T22:49:09.475Z,16.42
2022-12-08T22:51:37.210Z,16.40
2022-12-08T22:54:04.412Z,19.48
2022-12-08T22:56:31.236Z,15.48
2022-12-08T22:58:58.493Z,15.38
2022-12-08T23:01:29.265Z,14.52
2022-12-08T23:03:56.539Z,16.00
2022-12-08T23:06:24.059Z,13.35
2022-12-08T23:08:51.126Z,13.73
2022-12-08T23:11:18.511Z,14.98
2022-12-08T23:13:45.383Z,14.73
2022-12-08T23:16:13.089Z,10.68
2022-12-08T23:18:44.945Z,11.93
2022-12-08T23:21:15.356Z,13.07
2022-12-08T23:23:42.451Z,14.95
2022-12-08T23:26:18.454Z,13.57
2022-12-08T23:28:45.735Z,11.30
2022-12-08T23:31:12.629Z,14.38
2022-12-08T23:33:39.119Z,13.38
2022-12-08T23:36:06.103Z,12.27
2022-12-08T23:38:33.032Z,14.73
2022-12-08T23:41:05.469Z,15.73
2022-12-08T23:43:32.814Z,12.38
2022-12-08T23:45:59.739Z,16.05
2022-12-08T23:48:27.922Z,13.65
2022-12-08T23:50:54.947Z,15.50
2022-12-08T23:53:21.630Z,13.00
2022-12-08T23:55:48.387Z,14.55
2022-12-08T23:58:14.838Z,16.33
